Time;durP1;ratioP1;P1;durP2;ratioP2;P2;SDS_P1;SDS_P2;PMS_P1;PMS_P2;Temp;Humidity;BMP_temperature;BMP_pressure;BME280_temperature;BME280_humidity;BME280_pressure;Samples;Min_cycle;Max_cycle;Signal;HPM_P1;HPM_P2
2021/12/20 00:59:40;;;;;;;0.45;0.45;;;;;;;5.97;100.00;102920.94;6269991;22;20034;-81
2021/12/20 01:02:16;;;;;;;0.30;0.30;;;;;;;6.04;100.00;102918.34;6277212;22;20011;-81
2021/12/20 01:04:41;;;;;;;1.40;0.57;;;;;;;6.13;100.00;102933.34;6249195;22;20015;-81
2021/12/20 01:07:12;;;;;;;0.52;0.52;;;;;;;5.94;100.00;102932.31;6277196;22;20012;-81
2021/12/20 01:09:40;;;;;;;0.40;0.40;;;;;;;5.88;100.00;102932.25;6277894;22;20063;-82
2021/12/20 01:12:07;;;;;;;3.08;0.43;;;;;;;5.83;100.00;102922.56;6278126;22;20061;-82
2021/12/20 01:14:39;;;;;;;1.58;1.08;;;;;;;5.82;100.00;102918.13;6278021;22;19999;-82
2021/12/20 01:17:22;;;;;;;1.00;0.80;;;;;;;5.78;100.00;102917.19;6278122;22;20011;-81
2021/12/20 01:19:58;;;;;;;0.60;0.60;;;;;;;5.80;100.00;102917.19;6279269;22;20412;-81
2021/12/20 01:25:48;;;;;;;0.88;0.65;;;;;;;5.82;100.00;102916.38;6153898;23;20315;-81
2021/12/20 01:28:48;;;;;;;3.22;0.70;;;;;;;5.82;100.00;102913.75;6153052;23;20135;-80
2021/12/20 01:31:24;;;;;;;0.40;0.40;;;;;;;5.82;100.00;102912.84;6253722;22;20004;-81
2021/12/20 01:33:52;;;;;;;0.40;0.40;;;;;;;5.86;100.00;102910.25;6253006;22;20034;-82
2021/12/20 01:36:18;;;;;;;0.95;0.95;;;;;;;5.77;100.00;102906.63;6278587;22;20070;-82
2021/12/20 01:38:44;;;;;;;2.03;0.57;;;;;;;5.71;100.00;102903.94;6278188;22;19999;-82
2021/12/20 01:41:13;;;;;;;0.38;0.38;;;;;;;5.71;100.00;102918.00;6277606;22;20004;-82
2021/12/20 01:43:39;;;;;;;0.30;0.30;;;;;;;5.69;100.00;102909.19;6276587;22;20008;-82
2021/12/20 01:46:13;;;;;;;1.42;0.88;;;;;;;5.79;100.00;102904.88;6276858;22;20038;-81
2021/12/20 01:48:41;;;;;;;0.30;0.30;;;;;;;5.75;100.00;102913.66;6277092;22;20061;-82
2021/12/20 01:52:10;;;;;;;0.40;0.40;;;;;;;5.68;100.00;102912.69;6277759;22;20016;-82
2021/12/20 01:54:41;;;;;;;0.50;0.50;;;;;;;5.63;100.00;102919.66;6276153;22;20008;-82
2021/12/20 01:57:15;;;;;;;3.67;1.38;;;;;;;5.69;100.00;102916.19;6198520;22;20328;-82
2021/12/20 02:03:13;;;;;;;0.30;0.30;;;;;;;5.70;100.00;102929.44;6277616;22;20240;-81
2021/12/20 02:05:54;;;;;;;1.20;0.50;;;;;;;5.66;100.00;102919.69;6268838;22;20004;-82
2021/12/20 02:08:24;;;;;;;0.60;0.60;;;;;;;5.69;100.00;102913.56;6277331;22;20366;-82
2021/12/20 02:11:10;;;;;;;1.95;0.90;;;;;;;5.68;100.00;102907.44;6249492;22;20004;-82
2021/12/20 02:13:48;;;;;;;0.47;0.40;;;;;;;5.72;100.00;102903.94;6275604;22;20004;-82
2021/12/20 02:16:25;;;;;;;1.25;0.68;;;;;;;5.85;100.00;102910.25;6277434;22;20003;-82
2021/12/20 02:19:07;;;;;;;4.18;2.15;;;;;;;5.84;100.00;102901.47;6277990;22;20003;-82
2021/12/20 02:21:41;;;;;;;0.70;0.70;;;;;;;5.83;100.00;102896.19;6277386;22;20015;-82
2021/12/20 02:24:07;;;;;;;0.38;0.30;;;;;;;5.81;100.00;102898.78;6276788;22;20022;-82
2021/12/20 02:26:32;;;;;;;0.95;0.93;;;;;;;5.81;100.00;102895.25;6276539;22;20011;-82
2021/12/20 02:29:04;;;;;;;0.30;0.30;;;;;;;5.75;100.00;102888.16;6277281;22;20064;-82
2021/12/20 03:00:46;;;;;;;;;;;;;;;;;;;;;
2021/12/20 03:03:21;;;;;;;0.55;0.55;;;;;;;5.59;100.00;102885.38;6260833;22;20137;-82
2021/12/20 03:05:52;;;;;;;0.30;0.30;;;;;;;5.61;100.00;102884.50;6277990;22;20272;-81
2021/12/20 03:08:22;;;;;;;0.75;0.73;;;;;;;5.58;100.00;102895.00;6277350;22;20057;-82
2021/12/20 03:11:17;;;;;;;1.75;0.50;;;;;;;5.69;100.00;102887.19;6277506;22;20007;-82
2021/12/20 03:13:45;;;;;;;0.30;0.30;;;;;;;5.71;100.00;102888.09;6183770;23;20067;-82
2021/12/20 03:16:29;;;;;;;0.30;0.30;;;;;;;5.74;100.00;102894.31;6183439;23;20005;-82
2021/12/20 03:19:06;;;;;;;0.85;0.55;;;;;;;5.70;100.00;102886.34;6183870;23;20337;-81
2021/12/20 03:21:50;;;;;;;0.80;0.77;;;;;;;5.65;100.00;102886.31;6183566;23;20009;-82
2021/12/20 03:25:11;;;;;;;2.38;0.30;;;;;;;5.61;100.00;102892.41;6209718;22;20070;-82
2021/12/20 03:27:45;;;;;;;0.30;0.30;;;;;;;5.62;100.00;102886.28;6183815;23;20119;-82
2021/12/20 03:30:44;;;;;;;2.60;0.82;;;;;;;5.63;100.00;102898.59;6183138;23;20079;-82
2021/12/20 03:33:49;;;;;;;0.55;0.52;;;;;;;5.68;100.00;102890.72;6202646;22;20069;-82
2021/12/20 03:36:15;;;;;;;0.52;0.52;;;;;;;5.62;100.00;102883.66;6183686;23;20013;-82
2021/12/20 03:38:49;;;;;;;0.52;0.52;;;;;;;5.58;100.00;102880.94;6183393;23;20039;-82
2021/12/20 03:41:14;;;;;;;3.63;1.95;;;;;;;5.55;100.00;102873.00;6184854;23;20009;-82
2021/12/20 03:43:54;;;;;;;0.47;0.47;;;;;;;5.50;100.00;102877.38;6207541;23;20060;-82
2021/12/20 03:46:28;;;;;;;;;;;;;;;5.44;100.00;102885.19;6187582;23;20380;-82
2021/12/20 03:48:53;;;;;;;0.85;0.85;;;;;;;5.39;100.00;102874.59;6184845;23;19908;-81
2021/12/20 03:51:18;;;;;;;0.40;0.40;;;;;;;5.39;100.00;102879.88;6259744;22;19999;-82
2021/12/20 03:53:50;;;;;;;1.05;0.95;;;;;;;5.36;100.00;102882.47;6276813;22;20000;-82
2021/12/20 03:56:15;;;;;;;4.57;0.50;;;;;;;5.35;100.00;102883.34;6276335;22;20015;-82
2021/12/20 03:58:43;;;;;;;0.50;0.50;;;;;;;5.44;100.00;102880.81;6276177;22;20000;-82
2021/12/20 04:01:11;;;;;;;0.30;0.30;;;;;;;5.38;100.00;102888.66;6276568;22;20008;-82
2021/12/20 06:50:13;;;;;;;1.15;1.10;;;;;;;5.44;100.00;102912.44;6277211;22;20018;-84
2021/12/20 06:52:40;;;;;;;0.98;0.82;;;;;;;5.37;100.00;102913.25;6277807;22;20083;-83
2021/12/20 06:55:33;;;;;;;2.92;0.73;;;;;;;5.32;100.00;102903.50;6277368;22;20030;-82
2021/12/20 06:58:00;;;;;;;2.22;0.85;;;;;;;5.38;100.00;102916.75;6276998;22;20034;-82
2021/12/20 07:00:29;;;;;;;0.55;0.55;;;;;;;5.37;100.00;102925.53;6277431;22;20000;-82
2021/12/20 07:02:57;;;;;;;0.57;0.57;;;;;;;5.34;100.00;102920.22;6274277;22;20084;-82
2021/12/20 07:05:23;;;;;;;0.30;0.30;;;;;;;5.29;100.00;102908.75;6276654;22;20434;-83
2021/12/20 07:07:49;;;;;;;0.90;0.80;;;;;;;5.37;100.00;102910.63;6275344;22;20008;-82
2021/12/20 07:10:28;;;;;;;0.35;0.35;;;;;;;5.30;100.00;102906.13;6276941;22;20011;-83
2021/12/20 07:12:55;;;;;;;1.30;0.65;;;;;;;5.23;100.00;102914.81;6276692;22;20007;-82
2021/12/20 07:15:27;;;;;;;0.60;0.60;;;;;;;5.21;100.00;102919.19;6276768;22;20014;-82
2021/12/20 07:18:11;;;;;;;0.45;0.45;;;;;;;5.30;100.00;102914.03;6276302;22;20030;-82
2021/12/20 07:20:40;;;;;;;0.40;0.40;;;;;;;5.29;100.00;102916.66;6276697;22;20010;-82
2021/12/20 07:23:22;;;;;;;4.35;1.17;;;;;;;5.27;100.00;102919.25;6276933;22;20319;-82
2021/12/20 07:25:48;;;;;;;0.30;0.30;;;;;;;5.19;100.00;102914.75;6276118;22;20011;-82
2021/12/20 07:28:26;;;;;;;0.40;0.40;;;;;;;5.15;100.00;102916.50;6274772;22;20012;-81
2021/12/20 07:31:00;;;;;;;0.32;0.32;;;;;;;5.11;100.00;102916.41;6276890;22;20004;-81
2021/12/20 07:33:39;;;;;;;0.40;0.32;;;;;;;5.12;100.00;102913.78;6277086;22;20030;-81
2021/12/20 07:36:27;;;;;;;0.30;0.30;;;;;;;5.10;100.00;102917.28;6288935;22;20000;-87
2021/12/20 07:38:56;;;;;;;0.73;0.38;;;;;;;5.05;100.00;102916.34;6276705;22;20472;-85
2021/12/20 07:41:22;;;;;;;0.32;0.32;;;;;;;5.03;100.00;102916.31;6283737;22;20016;-87
2021/12/20 07:43:57;;;;;;;0.30;0.30;;;;;;;5.03;100.00;102913.69;6279524;22;20004;-87
2021/12/20 07:46:22;;;;;;;0.60;0.60;;;;;;;5.02;100.00;102917.19;6279441;22;20069;-88
2021/12/20 07:49:02;;;;;;;0.40;0.40;;;;;;;5.04;100.00;102918.09;6278778;22;20003;-89
2021/12/20 07:51:28;;;;;;;0.30;0.30;;;;;;;5.06;100.00;102923.38;6279265;22;20000;-88
2021/12/20 07:53:56;;;;;;;0.40;0.40;;;;;;;5.08;100.00;102922.53;6279040;22;20004;-89
2021/12/20 07:56:37;;;;;;;1.98;0.43;;;;;;;5.07;100.00;102938.31;6277787;22;20031;-92
